createdAt,value
2022-07-25T00:01:30.347Z,22.26
2022-07-25T00:03:57.669Z,22.25
2022-07-25T00:06:24.756Z,22.23
2022-07-25T00:08:51.837Z,22.20
2022-07-25T00:11:18.893Z,22.22
2022-07-25T00:13:46.943Z,22.17
2022-07-25T00:16:14.096Z,22.14
2022-07-25T00:18:42.823Z,22.11
2022-07-25T00:21:11.444Z,22.08
2022-07-25T00:23:38.719Z,22.01
2022-07-25T00:26:06.086Z,21.99
2022-07-25T00:28:33.758Z,21.97
2022-07-25T00:31:01.009Z,21.97
2022-07-25T00:33:28.085Z,21.91
2022-07-25T00:35:56.039Z,21.90
2022-07-25T00:38:23.374Z,21.86
2022-07-25T00:40:55.564Z,21.80
2022-07-25T00:43:23.095Z,21.77
2022-07-25T00:45:50.334Z,21.75
2022-07-25T00:48:17.364Z,21.75
2022-07-25T00:50:44.715Z,21.75
2022-07-25T00:53:12.899Z,21.69
2022-07-25T00:55:42.815Z,21.70
2022-07-25T00:58:11.735Z,21.69
2022-07-25T01:00:39.252Z,21.68
2022-07-25T01:03:06.461Z,21.67
2022-07-25T01:05:33.819Z,21.69
2022-07-25T01:08:01.240Z,21.67
2022-07-25T01:10:32.673Z,21.66
2022-07-25T01:12:59.811Z,21.64
2022-07-25T01:15:27.378Z,21.59
2022-07-25T01:17:55.014Z,21.59
2022-07-25T01:20:28.122Z,21.53
2022-07-25T01:22:56.058Z,21.54
2022-07-25T01:25:23.827Z,21.55
2022-07-25T01:27:55.904Z,21.50
2022-07-25T01:30:24.644Z,21.56
2022-07-25T01:32:52.171Z,21.56
2022-07-25T01:35:19.555Z,21.57
2022-07-25T01:37:46.807Z,21.56
2022-07-25T01:40:14.870Z,21.54
2022-07-25T01:42:43.283Z,21.51
2022-07-25T01:45:13.089Z,21.49
2022-07-25T01:47:42.611Z,21.33
2022-07-25T01:50:11.782Z,21.06
2022-07-25T01:52:41.610Z,20.99
2022-07-25T01:55:09.141Z,21.03
2022-07-25T01:57:38.084Z,20.97
2022-07-25T02:00:13.700Z,21.00
2022-07-25T02:02:44.036Z,21.02
2022-07-25T02:05:14.928Z,21.03
2022-07-25T02:07:42.773Z,21.00
2022-07-25T02:10:11.312Z,21.02
2022-07-25T02:12:38.376Z,20.99
2022-07-25T02:15:05.916Z,20.99
2022-07-25T02:17:33.831Z,21.00
2022-07-25T02:20:00.980Z,20.97
2022-07-25T02:22:28.111Z,21.03
2022-07-25T02:24:56.021Z,21.03
2022-07-25T02:27:23.123Z,21.00
2022-07-25T02:29:50.188Z,20.94
2022-07-25T02:32:17.265Z,20.89
2022-07-25T02:34:44.285Z,20.90
2022-07-25T02:37:13.044Z,20.87
2022-07-25T02:39:42.392Z,20.84
2022-07-25T02:42:11.759Z,20.78
2022-07-25T02:47:05.561Z,20.62
2022-07-25T02:49:34.027Z,20.60
2022-07-25T02:52:01.086Z,20.56
2022-07-25T02:54:28.102Z,20.55
2022-07-25T02:56:56.042Z,20.53
2022-07-25T02:59:23.242Z,20.50
2022-07-25T03:01:50.396Z,20.48
2022-07-25T03:04:17.759Z,20.47
2022-07-25T03:06:44.957Z,20.40
2022-07-25T03:09:12.705Z,20.40
2022-07-25T03:11:41.450Z,20.39
2022-07-25T03:14:09.125Z,20.37
2022-07-25T03:16:36.767Z,20.32
2022-07-25T03:19:04.393Z,20.30
2022-07-25T03:21:31.531Z,20.26
2022-07-25T03:23:58.579Z,20.26
2022-07-25T03:26:25.603Z,20.22
2022-07-25T03:28:52.653Z,20.24
2022-07-25T03:31:19.760Z,20.23
2022-07-25T03:33:46.935Z,20.24
2022-07-25T03:36:14.054Z,20.21
2022-07-25T03:38:42.715Z,20.21
2022-07-25T03:41:11.555Z,20.15
2022-07-25T03:43:38.794Z,20.20
2022-07-25T03:46:05.883Z,20.21
2022-07-25T03:48:34.053Z,20.22
2022-07-25T03:51:06.457Z,20.23
2022-07-25T03:53:55.993Z,20.22
2022-07-25T03:56:23.184Z,20.27
2022-07-25T03:58:50.232Z,20.28
2022-07-25T04:01:17.336Z,20.31
2022-07-25T04:03:46.437Z,20.26
2022-07-25T04:06:13.592Z,20.25
2022-07-25T04:08:43.560Z,20.31
2022-07-25T04:11:12.738Z,20.30
2022-07-25T04:13:41.675Z,20.31
2022-07-25T04:16:14.456Z,20.29
2022-07-25T04:18:46.162Z,20.32
2022-07-25T04:21:16.645Z,20.39
2022-07-25T04:23:44.068Z,20.40
2022-07-25T04:26:13.716Z,20.40
2022-07-25T04:28:42.796Z,20.42
2022-07-25T04:31:11.804Z,20.42
2022-07-25T04:33:41.487Z,20.39
2022-07-25T04:36:08.801Z,20.37
2022-07-25T04:38:36.249Z,20.30
2022-07-25T04:41:04.244Z,20.41
2022-07-25T04:43:31.348Z,20.45
2022-07-25T04:45:58.657Z,20.38
2022-07-25T04:48:25.945Z,20.49
2022-07-25T04:50:53.237Z,20.52
2022-07-25T04:53:20.396Z,20.56
2022-07-25T04:55:47.535Z,20.61
2022-07-25T04:58:14.573Z,20.64
2022-07-25T05:00:43.797Z,20.67
2022-07-25T05:03:12.727Z,20.69
2022-07-25T05:05:41.646Z,20.67
2022-07-25T05:08:09.041Z,20.78
2022-07-25T05:10:36.248Z,20.80
2022-07-25T05:13:03.924Z,20.80
2022-07-25T05:15:30.991Z,20.79
2022-07-25T05:17:58.125Z,20.81
2022-07-25T05:20:25.491Z,20.82
2022-07-25T05:22:52.693Z,20.84
2022-07-25T05:25:20.036Z,20.78
2022-07-25T05:27:47.198Z,20.78
2022-07-25T05:30:15.068Z,20.78
2022-07-25T05:32:43.106Z,20.70
2022-07-25T05:35:12.665Z,20.75
2022-07-25T05:37:41.649Z,20.78
2022-07-25T05:40:09.213Z,20.83
2022-07-25T05:42:36.295Z,20.88
2022-07-25T05:45:04.657Z,20.93
2022-07-25T05:47:32.718Z,20.98
2022-07-25T05:49:59.888Z,21.08
2022-07-25T05:52:26.978Z,21.14
2022-07-25T05:54:55.495Z,21.21
2022-07-25T05:57:22.539Z,21.17
2022-07-25T05:59:49.694Z,21.28
2022-07-25T06:02:16.916Z,21.35
2022-07-25T06:04:44.106Z,21.38
2022-07-25T06:07:16.911Z,21.33
2022-07-25T06:09:44.391Z,21.37
2022-07-25T06:12:14.137Z,21.34
2022-07-25T06:14:43.184Z,21.36
2022-07-25T06:17:12.628Z,21.37
2022-07-25T06:19:41.651Z,21.41
2022-07-25T06:22:09.406Z,21.50
2022-07-25T06:24:38.651Z,21.63
2022-07-25T06:27:07.244Z,21.74
2022-07-25T06:29:34.730Z,21.91
2022-07-25T06:32:02.887Z,22.06
2022-07-25T06:34:30.235Z,22.21
2022-07-25T06:36:57.705Z,22.38
2022-07-25T06:39:25.762Z,22.47
2022-07-25T06:41:52.817Z,22.45
2022-07-25T06:44:19.846Z,22.42
2022-07-25T06:46:46.963Z,22.38
2022-07-25T06:49:14.213Z,22.44
2022-07-25T06:51:43.000Z,22.48
2022-07-25T06:54:12.546Z,22.55
2022-07-25T06:56:41.511Z,22.62
2022-07-25T06:59:09.050Z,22.69
2022-07-25T07:01:36.696Z,22.85
2022-07-25T07:04:05.065Z,23.02
2022-07-25T07:06:33.556Z,23.30
2022-07-25T07:09:00.593Z,23.36
2022-07-25T07:11:27.706Z,23.34
2022-07-25T07:13:54.986Z,23.26
2022-07-25T07:16:22.053Z,22.97
2022-07-25T07:18:49.613Z,22.84
2022-07-25T07:21:21.535Z,22.76
2022-07-25T07:23:49.262Z,22.75
2022-07-25T07:26:21.524Z,22.75
2022-07-25T07:28:49.036Z,22.72
2022-07-25T07:31:18.355Z,22.58
2022-07-25T07:33:45.748Z,22.54
2022-07-25T07:36:13.032Z,22.39
2022-07-25T07:38:41.939Z,22.35
2022-07-25T07:41:09.231Z,22.25
2022-07-25T07:43:36.822Z,22.27
2022-07-25T07:46:04.303Z,22.25
2022-07-25T07:48:32.933Z,22.20
2022-07-25T07:51:01.589Z,22.19
2022-07-25T07:53:48.776Z,22.20
2022-07-25T07:56:16.568Z,22.24
2022-07-25T07:58:43.636Z,22.23
2022-07-25T08:01:12.818Z,22.36
2022-07-25T08:03:41.685Z,22.53
2022-07-25T08:06:08.731Z,22.56
2022-07-25T08:08:36.252Z,22.66
2022-07-25T08:11:03.880Z,22.48
2022-07-25T08:13:33.983Z,22.34
2022-07-25T08:16:03.972Z,22.34
2022-07-25T08:18:35.322Z,22.51
2022-07-25T08:21:05.993Z,22.73
2022-07-25T08:23:35.935Z,22.90
2022-07-25T08:26:04.650Z,23.11
2022-07-25T08:28:32.679Z,23.01
2022-07-25T08:30:59.782Z,22.79
2022-07-25T08:33:27.036Z,22.49
2022-07-25T08:35:56.066Z,22.41
2022-07-25T08:38:26.128Z,22.40
2022-07-25T08:40:56.084Z,22.11
2022-07-25T08:43:23.463Z,22.09
2022-07-25T08:45:52.793Z,21.96
2022-07-25T08:48:22.454Z,22.04
2022-07-25T08:50:50.613Z,22.14
2022-07-25T08:53:35.627Z,22.36
2022-07-25T08:56:13.337Z,22.54
2022-07-25T08:58:44.578Z,22.64
2022-07-25T09:01:14.180Z,22.61
2022-07-25T09:03:44.637Z,22.69
2022-07-25T09:06:29.742Z,22.67
2022-07-25T09:08:59.469Z,22.74
2022-07-25T09:11:28.758Z,22.71
2022-07-25T09:14:04.923Z,22.81
2022-07-25T09:16:40.355Z,22.76
2022-07-25T09:19:19.698Z,22.89
2022-07-25T09:22:04.207Z,23.09
2022-07-25T09:24:32.914Z,23.35
2022-07-25T09:27:08.308Z,23.42
2022-07-25T09:29:35.750Z,23.54
2022-07-25T09:32:20.302Z,23.66
2022-07-25T09:34:50.168Z,23.66
2022-07-25T09:37:19.919Z,23.64
2022-07-25T09:39:48.622Z,23.54
2022-07-25T09:42:18.533Z,23.48
2022-07-25T09:45:13.890Z,23.48
2022-07-25T09:47:59.690Z,23.51
2022-07-25T09:50:28.634Z,23.44
2022-07-25T09:52:58.352Z,23.31
2022-07-25T09:55:25.489Z,23.33
2022-07-25T09:57:52.897Z,23.44
2022-07-25T10:00:24.080Z,23.47
2022-07-25T10:03:11.230Z,23.34
2022-07-25T10:05:57.683Z,23.78
2022-07-25T10:08:25.194Z,24.14
2022-07-25T10:10:52.353Z,24.29
2022-07-25T10:13:30.253Z,24.30
2022-07-25T10:15:57.395Z,23.86
2022-07-25T10:18:27.641Z,23.62
2022-07-25T10:21:24.584Z,23.31
2022-07-25T10:24:00.049Z,23.27
2022-07-25T10:26:27.112Z,23.31
2022-07-25T10:28:56.014Z,23.54
2022-07-25T10:31:32.629Z,23.58
2022-07-25T10:34:02.753Z,23.61
2022-07-25T10:36:48.598Z,23.62
2022-07-25T10:39:18.343Z,23.53
2022-07-25T10:42:02.670Z,23.68
2022-07-25T10:44:43.185Z,23.60
2022-07-25T10:47:14.343Z,23.70
2022-07-25T10:50:13.359Z,23.86
2022-07-25T10:52:42.988Z,23.58
2022-07-25T10:55:12.418Z,23.44
2022-07-25T10:57:54.961Z,23.47
2022-07-25T11:00:27.354Z,23.42
2022-07-25T11:02:57.657Z,23.22
2022-07-25T11:05:25.470Z,23.06
2022-07-25T11:08:20.204Z,22.99
2022-07-25T11:10:51.800Z,23.01
2022-07-25T11:13:18.837Z,22.95
2022-07-25T11:15:46.738Z,22.90
2022-07-25T11:18:13.929Z,22.95
2022-07-25T11:20:43.036Z,23.13
2022-07-25T11:23:11.826Z,23.07
2022-07-25T11:25:38.887Z,23.20
2022-07-25T11:28:06.102Z,23.39
2022-07-25T11:30:34.906Z,23.15
2022-07-25T11:33:02.818Z,23.00
2022-07-25T11:35:33.096Z,22.69
2022-07-25T11:38:02.784Z,22.59
2022-07-25T11:40:32.959Z,22.60
2022-07-25T11:43:00.285Z,22.57
2022-07-25T11:45:34.102Z,22.57
2022-07-25T11:48:13.641Z,22.32
2022-07-25T11:50:44.101Z,22.21
2022-07-25T11:53:16.391Z,22.03
2022-07-25T11:55:45.159Z,21.97
2022-07-25T11:58:14.534Z,21.85
2022-07-25T12:00:47.001Z,21.88
2022-07-25T12:03:19.873Z,21.79
2022-07-25T12:05:48.079Z,21.77
2022-07-25T12:08:20.385Z,21.82
2022-07-25T12:10:49.228Z,21.92
2022-07-25T12:13:24.504Z,21.84
2022-07-25T12:15:51.647Z,21.79
2022-07-25T12:18:18.861Z,21.80
2022-07-25T12:20:45.914Z,21.79
2022-07-25T12:23:14.045Z,21.74
2022-07-25T12:25:46.184Z,21.76
2022-07-25T12:28:14.109Z,21.79
2022-07-25T12:30:45.764Z,21.78
2022-07-25T12:33:13.884Z,21.76
2022-07-25T12:35:43.787Z,21.79
2022-07-25T12:38:14.291Z,21.81
2022-07-25T12:40:44.626Z,22.02
2022-07-25T12:43:13.082Z,22.50
2022-07-25T12:45:41.826Z,23.00
2022-07-25T12:48:09.181Z,22.83
2022-07-25T12:50:36.521Z,22.61
2022-07-25T12:53:04.774Z,22.72
2022-07-25T12:55:31.881Z,23.15
2022-07-25T12:57:58.925Z,23.79
2022-07-25T13:00:26.241Z,24.51
2022-07-25T13:02:56.190Z,24.31
2022-07-25T13:05:24.380Z,23.69
2022-07-25T13:07:51.952Z,23.68
2022-07-25T13:10:19.649Z,24.10
2022-07-25T13:12:47.019Z,24.79
2022-07-25T13:15:14.326Z,24.60
2022-07-25T13:17:43.185Z,24.22
2022-07-25T13:20:13.056Z,24.65
2022-07-25T13:22:41.870Z,25.24
2022-07-25T13:25:08.970Z,25.43
2022-07-25T13:27:37.294Z,24.74
2022-07-25T13:30:06.320Z,24.52
2022-07-25T13:32:34.253Z,24.96
2022-07-25T13:35:01.342Z,24.88
2022-07-25T13:37:28.472Z,24.51
2022-07-25T13:39:56.216Z,24.95
2022-07-25T13:42:23.305Z,24.52
2022-07-25T13:44:50.329Z,24.18
2022-07-25T13:47:17.470Z,23.64
2022-07-25T13:49:44.693Z,23.30
2022-07-25T13:52:13.076Z,23.40
2022-07-25T13:54:41.859Z,23.92
2022-07-25T13:57:09.436Z,24.67
2022-07-25T13:59:36.671Z,25.13
2022-07-25T14:02:04.587Z,24.87
2022-07-25T14:04:32.009Z,24.78
2022-07-25T14:07:00.960Z,24.05
2022-07-25T14:09:28.107Z,24.40
2022-07-25T14:11:56.060Z,24.26
2022-07-25T14:14:23.191Z,24.55
2022-07-25T14:16:50.708Z,24.51
2022-07-25T14:19:17.793Z,23.81
2022-07-25T14:21:44.916Z,23.52
2022-07-25T14:24:13.092Z,23.47
2022-07-25T14:26:41.992Z,23.28
2022-07-25T14:29:12.953Z,23.56
2022-07-25T14:31:42.224Z,23.95
2022-07-25T14:34:09.418Z,24.49
2022-07-25T14:36:36.551Z,24.07
2022-07-25T14:39:05.195Z,24.02
2022-07-25T14:41:34.128Z,23.69
2022-07-25T14:44:01.285Z,23.14
2022-07-25T14:46:28.480Z,22.93
2022-07-25T14:48:56.516Z,23.33
2022-07-25T14:51:24.277Z,24.16
2022-07-25T14:53:53.256Z,23.91
2022-07-25T14:56:20.643Z,23.98
2022-07-25T14:58:47.661Z,24.57
2022-07-25T15:01:18.604Z,25.34
2022-07-25T15:03:45.863Z,25.19
2022-07-25T15:06:13.121Z,25.43
2022-07-25T15:08:41.472Z,25.17
2022-07-25T15:11:08.782Z,24.82
2022-07-25T15:13:36.029Z,25.19
2022-07-25T15:16:05.217Z,25.22
2022-07-25T15:18:46.871Z,24.53
2022-07-25T15:21:20.514Z,23.89
2022-07-25T15:23:47.562Z,23.48
2022-07-25T15:26:14.705Z,23.12
2022-07-25T15:28:43.159Z,22.99
2022-07-25T15:31:11.552Z,23.03
2022-07-25T15:33:38.636Z,23.37
2022-07-25T15:36:05.992Z,23.64
2022-07-25T15:38:33.983Z,23.92
2022-07-25T15:41:01.391Z,23.85
2022-07-25T15:43:28.442Z,23.52
2022-07-25T15:45:56.345Z,23.17
2022-07-25T15:48:23.970Z,23.39
2022-07-25T15:50:55.004Z,23.92
2022-07-25T15:53:22.070Z,24.28
2022-07-25T15:55:49.213Z,24.46
2022-07-25T15:58:16.465Z,23.82
2022-07-25T16:00:43.845Z,23.95
2022-07-25T16:03:13.815Z,23.70
2022-07-25T16:05:44.676Z,23.15
2022-07-25T16:08:12.652Z,22.89
2022-07-25T16:10:42.375Z,22.52
2022-07-25T16:13:11.381Z,22.36
2022-07-25T16:15:38.910Z,22.46
2022-07-25T16:18:06.563Z,22.43
2022-07-25T16:20:34.476Z,22.28
2022-07-25T16:23:01.630Z,22.40
2022-07-25T16:25:29.697Z,22.38
2022-07-25T16:27:57.742Z,22.45
2022-07-25T16:30:25.289Z,22.47
2022-07-25T16:32:52.490Z,23.13
2022-07-25T16:35:19.672Z,24.06
2022-07-25T16:37:46.717Z,24.80
2022-07-25T16:40:14.425Z,24.72
2022-07-25T16:42:44.115Z,24.61
2022-07-25T16:45:12.700Z,24.50
2022-07-25T16:47:42.439Z,23.89
2022-07-25T16:50:11.480Z,23.10
2022-07-25T16:52:38.732Z,22.72
2022-07-25T16:55:05.992Z,22.73
2022-07-25T16:57:34.039Z,22.87
2022-07-25T17:00:01.051Z,23.08
2022-07-25T17:02:29.935Z,23.07
2022-07-25T17:04:57.796Z,22.77
2022-07-25T17:07:25.942Z,22.13
2022-07-25T17:09:53.332Z,22.08
2022-07-25T17:12:20.574Z,22.05
2022-07-25T17:14:48.167Z,22.05
2022-07-25T17:17:15.297Z,21.93
2022-07-25T17:19:43.001Z,21.75
2022-07-25T17:22:12.496Z,21.74
2022-07-25T17:24:41.500Z,21.74
2022-07-25T17:27:09.590Z,21.60
2022-07-25T17:29:38.575Z,21.54
2022-07-25T17:32:06.983Z,21.54
2022-07-25T17:34:34.534Z,21.14
2022-07-25T17:37:03.134Z,21.04
2022-07-25T17:39:31.040Z,21.04
2022-07-25T17:41:58.170Z,20.85
2022-07-25T17:44:25.845Z,20.77
2022-07-25T17:46:55.265Z,20.73
2022-07-25T17:49:22.760Z,20.61
2022-07-25T17:51:49.955Z,20.68
2022-07-25T17:54:17.342Z,20.62
2022-07-25T17:56:45.450Z,20.58
2022-07-25T17:59:13.652Z,20.48
2022-07-25T18:01:42.702Z,20.47
2022-07-25T18:04:11.724Z,20.37
2022-07-25T18:06:38.933Z,20.33
2022-07-25T18:09:06.050Z,20.17
2022-07-25T18:11:34.248Z,20.21
2022-07-25T18:14:01.480Z,20.22
2022-07-25T18:16:28.862Z,20.20
2022-07-25T18:18:56.225Z,20.16
2022-07-25T18:21:24.422Z,20.10
2022-07-25T18:23:52.076Z,20.19
2022-07-25T18:26:19.212Z,20.07
2022-07-25T18:28:46.358Z,20.11
2022-07-25T18:31:13.528Z,20.11
2022-07-25T18:33:42.695Z,20.08
2022-07-25T18:36:11.370Z,20.01
2022-07-25T18:38:38.464Z,20.16
2022-07-25T18:43:56.234Z,20.07
2022-07-25T18:46:24.224Z,20.09
2022-07-25T18:48:51.833Z,20.14
2022-07-25T18:51:19.674Z,20.13
2022-07-25T18:53:48.530Z,20.12
2022-07-25T18:56:16.995Z,20.00
2022-07-25T18:58:44.585Z,19.86
2022-07-25T19:01:12.834Z,20.02
2022-07-25T19:03:42.290Z,19.91
2022-07-25T19:06:12.121Z,19.91
2022-07-25T19:08:43.762Z,19.88
2022-07-25T19:11:12.733Z,19.86
2022-07-25T19:13:50.879Z,19.86
2022-07-25T19:16:19.304Z,19.83
2022-07-25T19:18:47.280Z,19.74
2022-07-25T19:21:15.227Z,19.79
2022-07-25T19:23:48.201Z,19.72
2022-07-25T19:26:18.094Z,19.71
2022-07-25T19:28:45.247Z,19.62
2022-07-25T19:31:14.615Z,19.63
2022-07-25T19:33:45.447Z,19.60
2022-07-25T19:36:13.666Z,19.55
2022-07-25T19:38:42.746Z,19.55
2022-07-25T19:41:11.542Z,19.51
2022-07-25T19:43:38.622Z,19.53
2022-07-25T19:46:06.050Z,19.43
2022-07-25T19:48:34.357Z,19.51
2022-07-25T19:51:01.602Z,19.45
2022-07-25T19:53:28.925Z,19.44
2022-07-25T19:55:56.460Z,19.37
2022-07-25T19:58:23.673Z,19.39
2022-07-25T20:00:50.777Z,19.36
2022-07-25T20:03:23.523Z,19.30
2022-07-25T20:05:51.978Z,19.37
2022-07-25T20:08:19.061Z,19.36
2022-07-25T20:10:47.316Z,19.35
2022-07-25T20:13:14.728Z,19.32
2022-07-25T20:15:42.488Z,19.32
2022-07-25T20:18:12.922Z,19.26
2022-07-25T20:20:44.392Z,19.25
2022-07-25T20:23:14.816Z,19.20
2022-07-25T20:25:42.725Z,19.16
2022-07-25T20:28:11.298Z,19.09
2022-07-25T20:30:38.817Z,19.12
2022-07-25T20:33:08.189Z,19.09
2022-07-25T20:35:38.480Z,19.12
2022-07-25T20:38:09.356Z,19.11
2022-07-25T20:40:49.385Z,19.07
2022-07-25T20:43:17.205Z,19.09
2022-07-25T20:45:44.941Z,19.03
2022-07-25T20:48:12.735Z,18.98
2022-07-25T20:50:41.633Z,19.00
2022-07-25T20:53:08.885Z,18.96
2022-07-25T20:55:36.105Z,18.91
2022-07-25T20:58:04.949Z,18.82
2022-07-25T21:00:32.397Z,18.85
2022-07-25T21:02:59.771Z,18.83
2022-07-25T21:05:27.065Z,18.80
2022-07-25T21:07:54.943Z,18.78
2022-07-25T21:10:22.213Z,18.78
2022-07-25T21:12:49.238Z,18.74
2022-07-25T21:15:16.593Z,18.74
2022-07-25T21:17:43.906Z,18.74
2022-07-25T21:20:14.796Z,18.72
2022-07-25T21:22:43.559Z,18.72
2022-07-25T21:25:12.721Z,18.70
2022-07-25T21:27:41.481Z,18.63
2022-07-25T21:30:12.350Z,18.66
2022-07-25T21:32:42.800Z,18.62
2022-07-25T21:35:12.405Z,18.54
2022-07-25T21:37:41.451Z,18.48
2022-07-25T21:40:09.103Z,18.51
2022-07-25T21:42:37.087Z,18.47
2022-07-25T21:45:05.605Z,18.48
2022-07-25T21:47:33.279Z,18.46
2022-07-25T21:50:24.507Z,18.41
2022-07-25T21:52:53.724Z,18.30
2022-07-25T21:55:21.731Z,18.27
2022-07-25T21:57:51.138Z,18.17
2022-07-25T22:00:19.443Z,18.21
2022-07-25T22:02:47.251Z,18.16
2022-07-25T22:05:15.642Z,18.13
2022-07-25T22:07:43.712Z,18.10
2022-07-25T22:10:14.736Z,18.14
2022-07-25T22:12:43.008Z,18.13
2022-07-25T22:15:13.098Z,18.14
2022-07-25T22:17:48.882Z,18.17
2022-07-25T22:20:19.010Z,18.19
2022-07-25T22:22:49.396Z,18.22
2022-07-25T22:25:16.896Z,18.24
2022-07-25T22:27:44.366Z,18.26
2022-07-25T22:30:18.306Z,18.26
2022-07-25T22:32:49.726Z,18.27
2022-07-25T22:35:17.679Z,18.31
2022-07-25T22:37:45.412Z,18.31
2022-07-25T22:40:12.976Z,18.26
2022-07-25T22:42:41.530Z,18.24
2022-07-25T22:45:11.434Z,18.16
2022-07-25T22:47:38.611Z,18.18
2022-07-25T22:50:06.306Z,18.15
2022-07-25T22:52:34.993Z,18.16
2022-07-25T22:55:02.547Z,18.13
2022-07-25T22:57:30.278Z,18.15
2022-07-25T23:00:07.761Z,18.09
2022-07-25T23:02:34.963Z,18.16
2022-07-25T23:05:02.149Z,18.15
2022-07-25T23:07:29.237Z,18.17
2022-07-25T23:09:56.346Z,18.17
2022-07-25T23:12:23.441Z,18.19
2022-07-25T23:14:50.544Z,18.16
2022-07-25T23:17:17.707Z,18.18
2022-07-25T23:19:46.631Z,18.18
2022-07-25T23:22:14.304Z,18.15
2022-07-25T23:24:43.321Z,18.17
2022-07-25T23:27:12.696Z,18.19
2022-07-25T23:29:41.642Z,18.13
2022-07-25T23:32:08.909Z,18.16
2022-07-25T23:34:36.511Z,18.14
2022-07-25T23:37:04.701Z,18.14
2022-07-25T23:39:32.461Z,18.14
2022-07-25T23:42:01.137Z,18.15
2022-07-25T23:44:29.037Z,18.12
2022-07-25T23:46:57.419Z,18.13
2022-07-25T23:49:24.606Z,18.11
2022-07-25T23:51:51.942Z,18.12
2022-07-25T23:54:19.396Z,18.08
2022-07-25T23:56:46.473Z,18.08
2022-07-25T23:59:13.561Z,18.05
